Time;durP1;ratioP1;P1;durP2;ratioP2;P2;SDS_P1;SDS_P2;PMS_P1;PMS_P2;Temp;Humidity;BMP_temperature;BMP_pressure;BME280_temperature;BME280_humidity;BME280_pressure;Samples;Min_cycle;Max_cycle;Signal;HPM_P1;HPM_P2
2022/11/18 00:00:08;;;;;;;1.95;0.70;;;12.80;99.90;13.10;98227.00;;;;334743;29;89101;-95
2022/11/18 00:00:21;;;;;;;3.17;0.80;;;12.80;99.90;13.10;98220.00;;;;336319;28;82544;-95
2022/11/18 00:00:33;;;;;;;3.30;0.80;;;12.80;99.90;13.10;98215.00;;;;334667;29;90991;-95
2022/11/18 00:00:45;;;;;;;3.40;0.60;;;12.80;99.90;13.00;98212.00;;;;338036;28;82406;-96
2022/11/18 00:01:12;;;;;;;3.92;0.40;;;12.80;99.90;13.00;98226.00;;;;337361;28;89910;-95
2022/11/18 00:01:27;;;;;;;2.50;0.50;;;12.90;99.90;12.90;98219.00;;;;337647;28;82435;-95
2022/11/18 00:01:39;;;;;;;3.40;0.90;;;12.80;99.90;12.90;98227.00;;;;335818;29;90490;-95
2022/11/18 00:01:52;;;;;;;4.65;1.00;;;12.80;99.90;13.00;98216.00;;;;338207;28;83210;-96
2022/11/18 00:02:05;;;;;;;4.75;0.80;;;12.80;99.90;12.90;98222.00;;;;336945;28;90402;-96
2022/11/18 00:02:18;;;;;;;4.75;0.70;;;12.80;99.90;13.00;98226.00;;;;337634;28;82519;-95
2022/11/18 00:02:31;;;;;;;3.00;0.70;;;12.80;99.90;12.90;98221.00;;;;337013;28;90595;-94
2022/11/18 00:02:48;;;;;;;3.58;1.02;;;12.80;99.90;12.90;98224.00;;;;339206;28;82484;-96
2022/11/18 00:03:07;;;;;;;4.15;1.00;;;12.80;99.90;12.90;98223.00;;;;338880;28;90474;-89
2022/11/18 00:03:19;;;;;;;2.22;0.52;;;12.80;99.90;13.00;98221.00;;;;339654;28;82450;-91
2022/11/18 00:03:55;;;;;;;2.97;0.85;;;12.80;99.90;12.80;98229.00;;;;339736;28;83863;-96
2022/11/18 00:04:07;;;;;;;2.40;0.73;;;12.80;99.90;12.80;98229.00;;;;341621;28;91666;-92
2022/11/18 00:04:20;;;;;;;2.42;0.80;;;12.70;99.90;12.90;98226.00;;;;342656;28;82377;-87
2022/11/18 00:05:33;;;;;;;3.70;1.05;;;12.80;99.90;13.10;98237.00;;;;338857;28;84253;-96
2022/11/18 00:06:17;;;;;;;3.40;1.02;;;12.80;99.90;13.20;98231.00;;;;340081;28;86998;-96
2022/11/18 00:06:34;;;;;;;2.83;1.00;;;12.80;99.90;13.10;98231.00;;;;336194;29;82219;-95
2022/11/18 00:06:49;;;;;;;3.35;0.98;;;12.80;99.90;13.00;98227.00;;;;336074;29;88712;-94
2022/11/18 00:07:01;;;;;;;3.38;0.90;;;12.80;99.90;12.90;98228.00;;;;340307;28;84807;-96
2022/11/18 00:07:16;;;;;;;3.28;0.90;;;12.80;99.90;12.90;98232.00;;;;340342;28;88877;-94
2022/11/18 00:07:28;;;;;;;4.57;0.90;;;12.80;99.90;12.80;98239.00;;;;340474;28;82503;-94
2022/11/18 00:07:41;;;;;;;4.78;1.02;;;12.80;99.90;12.80;98242.00;;;;337775;28;89132;-95
2022/11/18 00:07:54;;;;;;;4.70;1.10;;;12.80;99.90;12.80;98244.00;;;;337797;28;83419;-96
2022/11/18 00:08:10;;;;;;;3.38;1.15;;;12.80;99.90;12.90;98242.00;;;;339793;28;90669;-96
2022/11/18 00:08:23;;;;;;;3.13;1.40;;;12.70;99.90;13.00;98240.00;;;;341990;28;84369;-94
2022/11/18 00:08:38;;;;;;;2.60;1.13;;;12.70;99.90;13.00;98254.00;;;;339042;28;86765;-96
2022/11/18 00:08:54;;;;;;;2.08;0.70;;;12.70;99.90;12.90;98250.00;;;;338134;28;82351;-93
2022/11/18 00:09:06;;;;;;;1.85;0.90;;;12.70;99.90;12.80;98245.00;;;;338954;28;89442;-96
2022/11/18 00:09:18;;;;;;;2.80;1.20;;;12.70;99.90;12.80;98245.00;;;;339282;28;85043;-95
2022/11/18 00:09:31;;;;;;;3.33;1.10;;;12.70;99.90;13.00;98249.00;;;;335133;29;90808;-93
2022/11/18 00:09:43;;;;;;;4.05;0.90;;;12.70;99.90;13.00;98239.00;;;;338239;28;82343;-92
2022/11/18 00:09:56;;;;;;;3.67;0.98;;;12.70;99.90;13.00;98234.00;;;;334870;29;91061;-96
2022/11/18 00:10:16;;;;;;;2.13;0.90;;;12.70;99.90;13.10;98237.00;;;;336318;29;82365;-95
2022/11/18 00:10:31;;;;;;;2.20;1.10;;;12.70;99.90;12.90;98242.00;;;;339765;28;90432;-92
2022/11/18 00:10:44;;;;;;;3.25;1.17;;;12.70;99.90;12.90;98237.00;;;;341912;28;82378;-94
2022/11/18 00:10:56;;;;;;;3.60;0.98;;;12.70;99.90;12.90;98238.00;;;;339936;28;87995;-96
2022/11/18 00:14:17;;;;;;;3.53;1.10;;;12.80;99.90;12.90;98240.00;;;;339403;28;82354;-94
2022/11/18 00:14:19;;;;;;;3.72;1.20;;;12.60;99.90;12.80;98247.00;;;;340072;28;90582;-94
2022/11/18 00:14:33;;;;;;;3.72;1.40;;;12.60;99.90;13.00;98248.00;;;;339124;28;82595;-95
2022/11/18 00:14:58;;;;;;;2.70;1.30;;;12.70;99.90;13.00;98249.00;;;;340355;28;88630;-95
2022/11/18 00:15:12;;;;;;;3.53;0.70;;;12.70;99.90;13.00;98240.00;;;;339091;28;82715;-95
2022/11/18 00:15:26;;;;;;;3.63;0.68;;;12.70;99.90;13.00;98228.00;;;;340178;28;89790;-96
2022/11/18 00:15:42;;;;;;;4.18;1.13;;;12.70;99.90;13.10;98240.00;;;;339260;28;83123;-94
2022/11/18 00:16:09;;;;;;;4.22;1.23;;;12.70;99.90;13.10;98242.00;;;;339978;28;89719;-96
2022/11/18 00:16:22;;;;;;;1.85;0.63;;;12.70;99.90;13.10;98244.00;;;;339108;28;82552;-96
2022/11/18 00:16:35;;;;;;;2.05;0.68;;;12.80;99.90;13.10;98240.00;;;;340154;28;89304;-95
2022/11/18 00:16:55;;;;;;;2.67;0.80;;;12.80;99.90;13.00;98249.00;;;;339285;28;82262;-96
2022/11/18 00:17:31;;;;;;;4.95;0.93;;;12.80;99.90;13.00;98243.00;;;;338487;28;90506;-94
2022/11/18 00:17:44;;;;;;;3.58;1.00;;;12.80;99.90;12.90;98236.00;;;;341646;28;84281;-96
2022/11/18 00:17:56;;;;;;;3.20;0.65;;;12.90;99.90;12.90;98246.00;;;;339198;28;87280;-95
2022/11/18 00:18:14;;;;;;;2.70;0.77;;;12.80;99.90;12.90;98248.00;;;;338880;28;83176;-96
2022/11/18 00:18:27;;;;;;;3.40;0.90;;;12.80;99.90;12.80;98249.00;;;;338734;28;90006;-96
2022/11/18 00:18:39;;;;;;;3.25;0.88;;;12.80;99.90;12.80;98249.00;;;;340809;28;82314;-96
2022/11/18 00:18:54;;;;;;;3.15;0.85;;;12.80;99.90;12.90;98250.00;;;;339098;28;87782;-96
2022/11/18 00:19:07;;;;;;;2.53;0.95;;;12.80;99.90;13.10;98247.00;;;;336402;29;84280;-96
2022/11/18 00:19:24;;;;;;;1.80;0.77;;;12.80;99.90;12.90;98249.00;;;;337450;28;87015;-96
2022/11/18 00:19:38;;;;;;;3.55;0.80;;;12.80;99.90;13.00;98241.00;;;;339354;28;82138;-95
2022/11/18 00:19:50;;;;;;;3.90;0.90;;;12.80;99.90;13.00;98246.00;;;;337680;28;88254;-96
2022/11/18 00:20:03;;;;;;;2.55;0.80;;;12.80;99.90;13.00;98243.00;;;;338069;28;82351;-94
2022/11/18 00:20:16;;;;;;;2.03;0.73;;;12.80;99.90;12.90;98253.00;;;;339927;28;90459;-96
2022/11/18 00:20:28;;;;;;;2.92;0.85;;;12.80;99.90;12.90;98246.00;;;;337920;28;84278;-93
2022/11/18 00:20:40;;;;;;;3.60;0.90;;;12.80;99.90;12.90;98238.00;;;;338854;28;88176;-96
2022/11/18 00:20:53;;;;;;;4.28;0.80;;;12.80;99.90;12.90;98253.00;;;;336268;29;83000;-96
2022/11/18 00:21:08;;;;;;;2.72;0.50;;;12.80;99.90;12.90;98256.00;;;;337439;28;90049;-96
2022/11/18 00:21:23;;;;;;;2.00;0.65;;;12.80;99.90;12.90;98249.00;;;;337906;28;82415;-95
2022/11/18 00:21:36;;;;;;;2.08;0.70;;;12.80;99.90;12.90;98248.00;;;;336237;29;91384;-96
2022/11/18 00:21:48;;;;;;;2.45;0.80;;;12.80;99.90;13.00;98249.00;;;;339060;28;82251;-93
2022/11/18 00:22:00;;;;;;;1.98;0.63;;;12.80;99.90;13.00;98244.00;;;;340003;28;91569;-95
2022/11/18 00:22:13;;;;;;;3.58;0.77;;;12.80;99.90;13.00;98240.00;;;;341786;28;82438;-96
2022/11/18 00:22:33;;;;;;;4.93;0.80;;;12.80;99.90;13.10;98250.00;;;;337573;28;87626;-91
2022/11/18 00:22:47;;;;;;;4.43;0.98;;;12.80;99.90;13.10;98248.00;;;;337647;28;82641;-96
2022/11/18 00:23:01;;;;;;;3.90;0.98;;;12.90;99.90;13.10;98245.00;;;;341255;28;90768;-96
2022/11/18 00:23:13;;;;;;;2.58;0.90;;;12.90;99.90;13.10;98249.00;;;;342026;28;82316;-94
2022/11/18 00:23:29;;;;;;;1.90;0.90;;;12.90;99.90;13.20;98242.00;;;;337843;28;87817;-95
2022/11/18 00:23:44;;;;;;;1.63;0.70;;;12.90;99.90;13.30;98250.00;;;;340209;28;83241;-96
2022/11/18 00:23:56;;;;;;;3.35;0.73;;;12.90;99.90;13.30;98243.00;;;;337414;28;89257;-95
2022/11/18 00:24:11;;;;;;;3.53;0.70;;;13.00;99.90;13.30;98241.00;;;;336502;29;82349;-96
2022/11/18 00:24:26;;;;;;;1.83;0.52;;;13.00;99.90;13.30;98239.00;;;;337553;28;90577;-95
2022/11/18 00:24:42;;;;;;;2.53;0.93;;;13.00;99.90;13.30;98252.00;;;;337726;28;82719;-95
2022/11/18 00:24:57;;;;;;;3.33;1.08;;;13.00;99.90;13.30;98238.00;;;;337682;28;87023;-95
2022/11/18 00:25:14;;;;;;;1.85;0.55;;;13.00;99.90;13.40;98231.00;;;;341312;28;83306;-96
2022/11/18 00:25:36;;;;;;;1.90;0.80;;;13.00;99.90;13.50;98235.00;;;;337622;28;90356;-96
2022/11/18 00:25:48;;;;;;;2.78;1.02;;;13.00;99.90;13.40;98237.00;;;;339266;28;83233;-95
2022/11/18 00:26:11;;;;;;;3.40;0.90;;;13.10;99.90;13.40;98232.00;;;;340354;28;88302;-95
2022/11/18 00:26:25;;;;;;;2.40;0.77;;;13.10;99.90;13.50;98227.00;;;;337949;28;84477;-96
2022/11/18 00:26:37;;;;;;;2.50;0.88;;;13.10;99.90;13.40;98234.00;;;;340480;28;88184;-94
2022/11/18 00:26:52;;;;;;;2.35;0.80;;;13.10;99.90;13.50;98239.00;;;;340807;28;84468;-91
2022/11/18 00:27:04;;;;;;;2.72;0.60;;;13.10;99.90;13.50;98228.00;;;;337764;28;87806;-95
2022/11/18 00:27:19;;;;;;;2.75;0.60;;;13.10;99.90;13.60;98238.00;;;;337772;28;82376;-93
2022/11/18 00:27:38;;;;;;;3.15;0.90;;;13.20;99.90;13.60;98234.00;;;;338974;28;88586;-95
2022/11/18 00:27:52;;;;;;;3.10;0.93;;;13.10;99.90;13.70;98233.00;;;;339726;28;82350;-89
2022/11/18 00:28:08;;;;;;;3.05;0.95;;;13.20;99.90;13.70;98227.00;;;;339218;28;88379;-95
2022/11/18 00:28:23;;;;;;;2.60;1.13;;;13.20;99.90;13.70;98230.00;;;;337917;28;82609;-93
2022/11/18 00:28:42;;;;;;;1.95;0.93;;;13.20;99.90;13.70;98227.00;;;;338991;28;90085;-94
2022/11/18 00:29:01;;;;;;;2.17;0.85;;;13.30;99.90;13.80;98233.00;;;;339363;28;83970;-95
2022/11/18 00:29:20;;;;;;;5.22;1.15;;;13.30;99.90;13.70;98230.00;;;;336429;28;90490;-87
2022/11/18 00:29:32;;;;;;;5.30;1.10;;;13.30;99.90;13.70;98232.00;;;;339256;28;83519;-91
2022/11/18 00:29:45;;;;;;;4.68;1.12;;;13.30;99.90;13.70;98228.00;;;;336911;28;90673;-90
2022/11/18 00:29:59;;;;;;;4.10;1.05;;;13.30;99.90;13.70;98235.00;;;;336914;29;82473;-94
2022/11/18 00:30:11;;;;;;;2.88;0.80;;;13.40;99.90;13.60;98234.00;;;;336622;29;88800;-88
2022/11/18 00:30:30;;;;;;;2.95;0.80;;;13.30;99.90;13.50;98231.00;;;;336967;28;82387;-94
2022/11/18 00:30:42;;;;;;;2.03;0.80;;;13.30;99.90;13.40;98230.00;;;;337497;28;90424;-91
2022/11/18 00:31:12;;;;;;;1.95;0.80;;;13.30;99.90;13.20;98239.00;;;;338473;28;82176;-95
2022/11/18 00:31:25;;;;;;;3.63;1.00;;;13.20;99.90;13.30;98242.00;;;;337895;28;91322;-91
2022/11/18 00:31:37;;;;;;;4.82;0.80;;;13.20;99.90;13.20;98239.00;;;;337919;28;84539;-89
2022/11/18 00:31:52;;;;;;;3.78;0.63;;;13.20;99.90;13.10;98241.00;;;;336557;29;91232;-89
2022/11/18 00:32:04;;;;;;;2.35;0.60;;;13.20;99.90;13.00;98240.00;;;;337810;28;82741;-89
2022/11/18 00:32:19;;;;;;;2.58;1.00;;;13.10;99.90;13.10;98240.00;;;;336355;28;90563;-89
2022/11/18 00:32:32;;;;;;;3.03;1.10;;;13.10;99.90;13.20;98238.00;;;;338421;28;82320;-90
2022/11/18 00:32:44;;;;;;;3.10;0.82;;;13.10;99.90;13.20;98240.00;;;;336530;28;87712;-87
2022/11/18 00:33:08;;;;;;;3.05;0.80;;;13.10;99.90;13.40;98245.00;;;;339363;28;84271;-91
2022/11/18 00:33:21;;;;;;;2.92;1.27;;;13.10;99.90;13.50;98246.00;;;;338526;28;90568;-94
2022/11/18 00:33:35;;;;;;;2.63;1.27;;;13.20;99.90;13.50;98238.00;;;;335873;29;82316;-93
2022/11/18 00:33:50;;;;;;;2.25;1.08;;;13.20;99.90;13.50;98233.00;;;;338855;28;91929;-93
2022/11/18 00:34:03;;;;;;;2.50;0.88;;;13.20;99.90;13.50;98245.00;;;;340442;28;82621;-90
2022/11/18 00:34:18;;;;;;;3.20;0.88;;;13.20;99.90;13.60;98236.00;;;;338198;28;86925;-89
2022/11/18 00:34:42;;;;;;;3.08;0.82;;;13.20;99.90;13.50;98244.00;;;;340843;28;82821;-91
2022/11/18 00:34:54;;;;;;;3.15;0.88;;;13.30;99.90;13.50;98245.00;;;;337804;28;91632;-91
2022/11/18 00:35:09;;;;;;;3.58;0.98;;;13.30;99.90;13.50;98238.00;;;;339778;28;82379;-92
2022/11/18 00:37:58;;;;;;;2.50;0.65;;;13.30;99.90;13.10;98255.00;;;;406969;22;83285;-95
2022/11/18 00:38:13;;;;;;;2.08;0.70;;;13.30;99.90;13.20;98260.00;;;;340789;28;88727;-95
2022/11/18 00:38:28;;;;;;;3.55;0.77;;;13.20;99.90;13.10;98254.00;;;;340617;28;82418;-93
2022/11/18 00:38:42;;;;;;;3.25;0.70;;;13.20;99.90;13.10;98248.00;;;;339884;28;87969;-95
2022/11/18 00:38:55;;;;;;;2.15;0.82;;;13.20;99.90;13.10;98255.00;;;;343099;28;83992;-94
2022/11/18 00:39:10;;;;;;;2.35;0.88;;;13.10;99.90;13.20;98254.00;;;;342622;28;87603;-92
2022/11/18 00:39:22;;;;;;;2.30;1.13;;;13.10;99.90;13.20;98247.00;;;;341460;28;82528;-95
2022/11/18 00:39:35;;;;;;;1.75;1.00;;;13.10;99.90;13.30;98252.00;;;;341990;28;90181;-90
2022/11/18 00:43:00;;;;;;;1.85;0.73;;;13.00;99.90;13.30;98244.00;;;;339401;28;82471;-95
2022/11/18 00:43:15;;;;;;;1.63;0.70;;;13.10;99.90;13.00;98258.00;;;;338187;28;88993;-95
2022/11/18 00:43:27;;;;;;;2.53;1.10;;;13.10;99.90;12.80;98258.00;;;;338023;28;83296;-88
2022/11/18 00:43:41;;;;;;;3.00;1.10;;;13.00;99.90;12.80;98262.00;;;;339029;28;91295;-88
2022/11/18 00:43:54;;;;;;;2.20;0.57;;;13.00;99.90;12.70;98265.00;;;;342172;28;82425;-88
2022/11/18 00:44:24;;;;;;;2.58;0.77;;;12.90;99.90;13.10;98264.00;;;;338060;28;83783;-95
2022/11/18 00:44:43;;;;;;;3.08;0.98;;;12.90;99.90;13.10;98260.00;;;;334241;29;87750;-95
2022/11/18 00:44:55;;;;;;;2.28;0.85;;;12.90;99.90;13.20;98270.00;;;;335927;28;83109;-96
2022/11/18 00:45:09;;;;;;;1.90;0.80;;;12.90;99.90;13.10;98270.00;;;;335648;29;88605;-94
2022/11/18 00:45:25;;;;;;;2.13;0.80;;;13.00;99.90;13.10;98266.00;;;;335989;29;82379;-95
2022/11/18 00:45:42;;;;;;;2.63;0.88;;;13.00;99.90;13.10;98269.00;;;;335457;29;89869;-96
2022/11/18 00:46:00;;;;;;;3.17;0.95;;;12.90;99.90;13.00;98264.00;;;;335953;28;82530;-95
2022/11/18 00:46:34;;;;;;;1.95;0.50;;;12.90;99.90;13.10;98267.00;;;;338280;28;83663;-95
2022/11/18 00:46:46;;;;;;;2.83;0.60;;;12.90;99.90;13.10;98262.00;;;;339509;28;86898;-96
2022/11/18 00:46:59;;;;;;;2.90;0.63;;;12.90;99.90;13.10;98253.00;;;;339140;28;82484;-94
2022/11/18 00:47:11;;;;;;;2.50;0.70;;;12.90;99.90;13.10;98258.00;;;;337980;28;89072;-90
2022/11/18 00:47:47;;;;;;;1.80;0.50;;;12.90;99.90;13.10;98264.00;;;;339707;28;86926;-96
2022/11/18 00:48:01;;;;;;;1.60;0.55;;;12.90;99.90;13.10;98263.00;;;;337906;28;82440;-96
2022/11/18 00:48:20;;;;;;;2.75;0.80;;;12.90;99.90;13.10;98262.00;;;;340274;28;90162;-96
2022/11/18 00:48:32;;;;;;;2.55;0.80;;;12.90;99.90;13.00;98266.00;;;;340871;28;82240;-91
2022/11/18 00:48:48;;;;;;;1.15;0.50;;;12.90;99.90;12.80;98264.00;;;;338583;28;88419;-96
2022/11/18 00:49:00;;;;;;;2.17;0.60;;;12.90;99.90;12.80;98262.00;;;;339157;28;83141;-96
2022/11/18 00:49:16;;;;;;;2.70;0.60;;;12.90;99.90;12.80;98261.00;;;;337643;28;90729;-95
2022/11/18 00:49:32;;;;;;;1.88;0.50;;;12.90;99.90;13.00;98254.00;;;;338179;28;82427;-95
2022/11/18 00:49:49;;;;;;;1.52;0.45;;;12.90;99.90;13.00;98262.00;;;;338721;28;89687;-96
2022/11/18 00:50:01;;;;;;;1.70;0.70;;;12.90;99.90;12.90;98265.00;;;;337950;28;82212;-96
2022/11/18 00:50:15;;;;;;;1.92;0.82;;;12.90;99.90;12.80;98257.00;;;;337772;28;87351;-96
2022/11/18 00:50:28;;;;;;;1.90;0.60;;;12.90;99.90;12.80;98260.00;;;;339049;28;82726;-94
2022/11/18 00:50:43;;;;;;;1.63;0.50;;;12.80;99.90;12.90;98259.00;;;;340330;28;89473;-96
2022/11/18 00:50:57;;;;;;;1.80;0.52;;;12.80;99.90;12.90;98249.00;;;;337748;28;83169;-96
2022/11/18 00:51:16;;;;;;;2.05;0.70;;;12.80;99.90;13.00;98258.00;;;;340021;28;90160;-95
2022/11/18 00:51:29;;;;;;;2.38;0.65;;;12.80;99.90;12.80;98273.00;;;;339014;28;83259;-95
2022/11/18 00:51:44;;;;;;;3.78;0.85;;;12.80;99.90;12.70;98261.00;;;;339063;28;91638;-96
2022/11/18 00:52:00;;;;;;;3.30;0.82;;;12.80;99.90;12.60;98268.00;;;;339135;28;82469;-96
2022/11/18 00:52:18;;;;;;;2.65;0.68;;;12.80;99.90;12.80;98261.00;;;;339166;28;88594;-95
2022/11/18 00:52:32;;;;;;;3.45;0.80;;;12.70;99.90;13.00;98261.00;;;;340410;28;83238;-96
2022/11/18 00:52:46;;;;;;;2.50;0.60;;;12.70;99.90;13.00;98267.00;;;;338900;28;89343;-96
2022/11/18 00:53:01;;;;;;;1.50;0.47;;;12.80;99.90;13.10;98257.00;;;;339246;28;82290;-96
2022/11/18 00:53:14;;;;;;;2.00;0.70;;;12.80;99.90;13.10;98258.00;;;;339816;28;90820;-95
2022/11/18 00:53:27;;;;;;;2.13;0.70;;;12.80;99.90;12.90;98264.00;;;;338513;28;82370;-95
2022/11/18 00:53:42;;;;;;;2.42;0.50;;;12.80;99.90;12.90;98249.00;;;;338909;28;91095;-96
2022/11/18 00:53:57;;;;;;;2.63;0.52;;;12.80;99.90;12.90;98262.00;;;;340599;28;82469;-96
2022/11/18 00:54:12;;;;;;;1.60;0.50;;;12.80;99.90;12.90;98260.00;;;;340013;28;88039;-96
2022/11/18 00:54:25;;;;;;;1.70;0.32;;;12.70;99.90;13.00;98259.00;;;;340855;28;82173;-94
2022/11/18 00:54:37;;;;;;;1.90;0.40;;;12.70;99.90;13.10;98260.00;;;;340335;28;89896;-90
2022/11/18 00:54:50;;;;;;;2.90;0.77;;;12.70;99.90;13.10;98268.00;;;;341650;28;83313;-96
2022/11/18 00:55:02;;;;;;;3.10;0.88;;;12.80;99.90;13.20;98269.00;;;;341450;28;88452;-95
2022/11/18 00:55:15;;;;;;;1.80;0.70;;;12.80;99.90;13.00;98273.00;;;;338791;28;83235;-96
2022/11/18 00:55:29;;;;;;;2.20;0.50;;;12.80;99.90;12.90;98273.00;;;;339736;28;91021;-96
2022/11/18 00:55:44;;;;;;;2.40;0.45;;;12.70;99.90;12.90;98273.00;;;;339252;28;83723;-96
2022/11/18 00:55:57;;;;;;;1.10;0.30;;;12.70;99.90;12.80;98268.00;;;;335092;29;88035;-91
2022/11/18 00:56:12;;;;;;;1.10;0.30;;;12.70;99.90;12.80;98270.00;;;;336495;29;85031;-96
2022/11/18 00:56:27;;;;;;;1.25;0.40;;;12.70;99.90;12.80;98272.00;;;;338967;28;88385;-96
2022/11/18 00:56:42;;;;;;;1.30;0.45;;;12.70;99.90;12.90;98273.00;;;;341606;28;84519;-96
2022/11/18 00:56:58;;;;;;;1.33;0.30;;;12.70;99.90;12.90;98270.00;;;;339855;28;87960;-96
2022/11/18 00:57:10;;;;;;;1.13;0.20;;;12.70;99.90;12.90;98264.00;;;;340319;28;82444;-96
2022/11/18 00:57:24;;;;;;;1.77;0.20;;;12.70;99.90;12.90;98252.00;;;;341143;28;90310;-96
2022/11/18 00:57:37;;;;;;;2.25;0.15;;;12.70;99.90;12.90;98254.00;;;;340024;28;83198;-96
2022/11/18 00:57:53;;;;;;;1.90;0.20;;;12.70;99.90;13.00;98260.00;;;;337029;28;90664;-94
2022/11/18 00:58:06;;;;;;;0.90;0.20;;;12.70;99.90;12.90;98268.00;;;;339194;28;82362;-96
2022/11/18 00:58:18;;;;;;;1.95;0.22;;;12.70;99.90;12.90;98268.00;;;;338657;28;90765;-96
2022/11/18 00:58:35;;;;;;;2.63;0.20;;;12.70;99.90;12.90;98272.00;;;;339016;28;82373;-96
2022/11/18 00:58:48;;;;;;;1.73;0.30;;;12.70;99.90;12.90;98274.00;;;;339863;28;90393;-96
2022/11/18 00:59:05;;;;;;;0.70;0.30;;;12.70;99.90;12.80;98271.00;;;;340591;28;82347;-96
2022/11/18 00:59:17;;;;;;;0.70;0.20;;;12.60;99.90;12.90;98268.00;;;;340195;28;88839;-96
2022/11/18 00:59:33;;;;;;;1.60;0.28;;;12.60;99.90;12.80;98270.00;;;;337792;28;82378;-96
2022/11/18 00:59:46;;;;;;;1.60;0.30;;;12.60;99.90;12.90;98267.00;;;;335950;29;89380;-96
2022/11/18 00:59:59;;;;;;;0.80;0.30;;;12.60;99.90;12.90;98267.00;;;;337682;28;82449;-96
2022/11/18 01:00:17;;;;;;;0.90;0.30;;;12.60;99.90;12.90;98268.00;;;;337510;28;88217;-96
2022/11/18 01:00:30;;;;;;;0.60;0.10;;;12.60;99.90;12.80;98270.00;;;;336133;28;82637;-96
2022/11/18 01:00:44;;;;;;;0.35;0.10;;;12.60;99.90;12.80;98262.00;;;;337372;28;90082;-96
2022/11/18 01:00:56;;;;;;;0.70;0.20;;;12.60;99.90;12.80;98266.00;;;;338240;28;82535;-96
2022/11/18 01:01:19;;;;;;;1.50;0.20;;;12.60;99.90;12.80;98260.00;;;;337565;28;87737;-96
2022/11/18 01:01:32;;;;;;;0.77;0.17;;;12.60;99.90;12.80;98271.00;;;;337582;28;82349;-96
2022/11/18 01:01:47;;;;;;;0.65;0.20;;;12.50;99.90;12.80;98257.00;;;;337363;28;88382;-96
2022/11/18 01:02:03;;;;;;;1.70;0.20;;;12.60;99.90;12.80;98274.00;;;;338651;28;83158;-96
2022/11/18 01:02:18;;;;;;;1.62;0.30;;;12.60;99.90;12.80;98273.00;;;;337361;28;91632;-96
2022/11/18 01:02:31;;;;;;;0.70;0.25;;;12.50;99.90;12.80;98270.00;;;;337307;28;83267;-96
2022/11/18 01:02:44;;;;;;;0.57;0.10;;;12.50;99.90;12.80;98273.00;;;;337247;28;92255;-95
2022/11/18 01:02:56;;;;;;;0.63;0.10;;;12.60;99.90;12.80;98275.00;;;;339260;28;82397;-96
2022/11/18 01:03:10;;;;;;;0.80;0.10;;;12.50;99.90;12.80;98270.00;;;;338633;28;87431;-95
2022/11/18 01:03:24;;;;;;;0.80;0.10;;;12.50;99.90;12.90;98262.00;;;;338049;28;82468;-96
2022/11/18 01:03:36;;;;;;;0.80;0.10;;;12.50;99.90;12.90;98269.00;;;;339006;28;87061;-96
2022/11/18 01:03:49;;;;;;;1.27;0.20;;;12.50;99.90;12.80;98281.00;;;;340393;28;82379;-95
2022/11/18 01:04:02;;;;;;;0.73;0.20;;;12.50;99.90;12.80;98269.00;;;;341084;28;90764;-96
2022/11/18 01:04:19;;;;;;;0.65;0.10;;;12.50;99.90;12.80;98271.00;;;;341690;28;82308;-96
2022/11/18 01:04:31;;;;;;;0.60;0.10;;;12.50;99.90;12.80;98273.00;;;;339478;28;90328;-96
2022/11/18 01:04:43;;;;;;;0.30;0.10;;;12.50;99.90;12.80;98286.00;;;;337689;28;82488;-96
2022/11/18 01:04:56;;;;;;;0.43;0.10;;;12.50;99.90;12.80;98281.00;;;;337113;28;90703;-96
2022/11/18 01:05:13;;;;;;;0.50;0.10;;;12.50;99.90;12.80;98278.00;;;;337637;28;82650;-96
2022/11/18 01:05:27;;;;;;;0.50;0.10;;;12.50;99.90;12.90;98273.00;;;;337371;28;87833;-96
2022/11/18 01:05:42;;;;;;;1.50;0.60;;;12.50;99.90;12.80;98282.00;;;;339983;28;84154;-96
2022/11/18 01:05:55;;;;;;;1.60;0.60;;;12.50;99.90;12.80;98275.00;;;;339877;28;90258;-95
2022/11/18 01:06:08;;;;;;;0.70;0.13;;;12.50;99.90;12.80;98280.00;;;;339883;28;82953;-96
2022/11/18 01:06:22;;;;;;;0.50;0.20;;;12.50;99.90;12.90;98266.00;;;;338443;28;91754;-96
2022/11/18 01:06:34;;;;;;;0.43;0.10;;;12.50;99.90;12.80;98282.00;;;;337121;28;82977;-96
2022/11/18 01:06:48;;;;;;;0.60;0.10;;;12.50;99.90;12.90;98280.00;;;;338523;28;89357;-96
2022/11/18 01:07:01;;;;;;;0.90;0.10;;;12.50;99.90;12.90;98274.00;;;;338802;28;83225;-96
2022/11/18 01:07:16;;;;;;;1.20;0.20;;;12.50;99.90;12.90;98274.00;;;;339484;28;92168;-96
2022/11/18 01:07:31;;;;;;;1.20;0.20;;;12.50;99.90;12.80;98279.00;;;;337702;28;82367;-96
2022/11/18 01:07:43;;;;;;;0.80;0.13;;;12.50;99.90;12.80;98274.00;;;;337388;28;87921;-96
2022/11/18 01:07:58;;;;;;;0.35;0.10;;;12.50;99.90;12.90;98266.00;;;;337831;28;82460;-96
2022/11/18 01:08:12;;;;;;;0.55;0.10;;;12.50;99.90;13.00;98262.00;;;;336839;28;87624;-96
2022/11/18 01:08:25;;;;;;;0.73;0.10;;;12.50;99.90;12.90;98267.00;;;;336001;29;82505;-96
2022/11/18 01:08:40;;;;;;;0.73;0.20;;;12.50;99.90;12.80;98275.00;;;;341432;28;88379;-96
2022/11/18 01:08:52;;;;;;;0.77;0.20;;;12.50;99.90;12.80;98282.00;;;;338806;28;82514;-96
2022/11/18 01:09:06;;;;;;;0.98;0.17;;;12.50;99.90;12.80;98279.00;;;;338591;28;91109;-96
2022/11/18 01:09:18;;;;;;;1.00;0.20;;;12.50;99.90;12.80;98275.00;;;;338397;28;82994;-96
2022/11/18 01:09:31;;;;;;;1.20;0.40;;;12.50;99.90;12.80;98279.00;;;;337217;28;91775;-96
2022/11/18 01:09:46;;;;;;;1.02;0.40;;;12.50;99.90;12.80;98280.00;;;;338848;28;82627;-96
2022/11/18 01:09:58;;;;;;;0.50;0.10;;;12.50;99.90;12.70;98266.00;;;;339675;28;88604;-96
2022/11/18 01:10:11;;;;;;;0.80;0.50;;;12.50;99.90;12.90;98272.00;;;;338815;28;83360;-96
2022/11/18 01:10:26;;;;;;;1.35;0.52;;;12.50;99.90;12.90;98270.00;;;;335475;29;88861;-96
2022/11/18 01:10:44;;;;;;;1.33;0.20;;;12.50;99.90;12.80;98271.00;;;;336163;28;82461;-96
2022/11/18 01:13:17;;;;;;;0.60;0.30;;;12.50;99.90;12.80;98282.00;;;;336023;28;88102;-96
2022/11/18 01:13:19;;;;;;;0.40;0.10;;;12.60;99.90;12.90;98285.00;;;;337943;28;90093;-96
2022/11/18 01:13:32;;;;;;;1.10;0.10;;;12.60;99.90;12.90;98289.00;;;;339621;28;83334;-96
2022/11/18 01:13:47;;;;;;;1.10;0.10;;;12.60;99.90;13.00;98287.00;;;;336992;28;91701;-96
2022/11/18 01:14:00;;;;;;;0.35;0.10;;;12.60;99.90;12.90;98288.00;;;;337675;28;82311;-96
2022/11/18 01:14:12;;;;;;;0.60;0.10;;;12.60;99.90;13.00;98285.00;;;;336425;28;90235;-96
2022/11/18 01:14:25;;;;;;;1.00;0.20;;;12.60;99.90;13.00;98275.00;;;;336169;29;82490;-96
2022/11/18 01:14:37;;;;;;;2.25;0.40;;;12.60;99.90;13.00;98275.00;;;;337148;28;91586;-96
2022/11/18 01:15:00;;;;;;;2.10;0.30;;;12.60;99.90;12.90;98278.00;;;;336615;29;82337;-96
2022/11/18 01:15:13;;;;;;;1.15;0.10;;;12.60;99.90;12.90;98274.00;;;;337449;28;88568;-95
2022/11/18 01:15:29;;;;;;;1.50;0.10;;;12.60;99.90;12.90;98283.00;;;;337588;28;82288;-96
2022/11/18 01:15:55;;;;;;;1.60;0.10;;;12.60;99.90;12.90;98290.00;;;;337414;28;88030;-96
2022/11/18 01:16:07;;;;;;;0.73;0.10;;;12.60;99.90;13.00;98281.00;;;;337553;28;82450;-96
2022/11/18 01:16:22;;;;;;;0.77;0.20;;;12.60;99.90;13.00;98285.00;;;;338285;28;90276;-96
2022/11/18 01:16:37;;;;;;;0.30;0.10;;;12.60;99.90;13.00;98272.00;;;;337693;28;82440;-96
2022/11/18 01:16:52;;;;;;;0.80;0.10;;;12.60;99.90;13.00;98281.00;;;;336612;28;90771;-96
2022/11/18 01:17:04;;;;;;;1.40;0.20;;;12.60;99.90;12.90;98275.00;;;;337074;28;83160;-96
2022/11/18 01:17:20;;;;;;;2.67;0.20;;;12.60;99.90;13.00;98272.00;;;;337599;28;87136;-96
2022/11/18 01:17:36;;;;;;;1.60;0.10;;;12.60;99.90;13.00;98272.00;;;;338645;28;82349;-96
2022/11/18 01:17:49;;;;;;;0.80;0.10;;;12.60;99.90;12.90;98273.00;;;;337133;28;88209;-95
2022/11/18 01:18:01;;;;;;;0.80;0.10;;;12.60;99.90;13.00;98270.00;;;;334468;29;82852;-96
2022/11/18 01:18:15;;;;;;;0.38;0.05;;;12.60;99.90;13.00;98269.00;;;;336056;29;89681;-96
2022/11/18 01:18:30;;;;;;;0.50;0.10;;;12.60;99.90;13.00;98275.00;;;;333653;29;83215;-96
2022/11/18 01:18:44;;;;;;;1.80;0.10;;;12.60;99.90;12.90;98271.00;;;;336021;29;90206;-96
2022/11/18 01:18:58;;;;;;;2.03;0.10;;;12.60;99.90;13.00;98275.00;;;;336778;28;82671;-96
2022/11/18 01:19:12;;;;;;;1.17;0.10;;;12.60;99.90;12.90;98278.00;;;;335746;29;90167;-96